<?xml version="1.0" encoding="UTF-8" standalone="no" ?>
<gpx xmlns="http://www.topografix.com/GPX/1/1" xmlns:xsi="http://www.w3.org/2001/XMLSchema-instance" xsi:schemaLocation="http://www.topografix.com/GPX/1/1 http://www.topografix.com/GPX/1/1/gpx.xsd" version="1.1" creator="VisuGPX - https://www.visugpx.com">
  <metadata>
    <name>14054087-la forêt de Sylve gr3</name>
  </metadata>
  <trk>
    <name><![CDATA[14054087-la forêt de Sylve gr3]]></name>
    <trkseg>
      <trkpt lat="45.45942" lon="5.4562">
        <ele>463</ele>
        <time>2022-01-17T06:40:09Z</time>
      </trkpt>
      <trkpt lat="45.45913" lon="5.45673">
        <ele>474</ele>
        <time>2022-01-17T06:41:12Z</time>
      </trkpt>
      <trkpt lat="45.45888" lon="5.4579">
        <ele>485</ele>
        <time>2022-01-17T06:43:06Z</time>
      </trkpt>
      <trkpt lat="45.45888" lon="5.45678">
        <ele>477</ele>
        <time>2022-01-17T06:44:51Z</time>
      </trkpt>
      <trkpt lat="45.45844" lon="5.45751">
        <ele>494</ele>
        <time>2022-01-17T06:46:21Z</time>
      </trkpt>
      <trkpt lat="45.45807" lon="5.45779">
        <ele>503</ele>
        <time>2022-01-17T06:47:17Z</time>
      </trkpt>
      <trkpt lat="45.45784" lon="5.45809">
        <ele>509</ele>
        <time>2022-01-17T06:47:59Z</time>
      </trkpt>
      <trkpt lat="45.45694" lon="5.45819">
        <ele>522</ele>
        <time>2022-01-17T06:49:59Z</time>
      </trkpt>
      <trkpt lat="45.4564" lon="5.4579">
        <ele>524</ele>
        <time>2022-01-17T06:51:16Z</time>
      </trkpt>
      <trkpt lat="45.45501" lon="5.45775">
        <ele>536</ele>
        <time>2022-01-17T06:54:22Z</time>
      </trkpt>
      <trkpt lat="45.45473" lon="5.45742">
        <ele>531</ele>
        <time>2022-01-17T06:55:11Z</time>
      </trkpt>
      <trkpt lat="45.45291" lon="5.4566">
        <ele>526</ele>
        <time>2022-01-17T06:59:26Z</time>
      </trkpt>
      <trkpt lat="45.45051" lon="5.45635">
        <ele>521</ele>
        <time>2022-01-17T07:04:47Z</time>
      </trkpt>
      <trkpt lat="45.45055" lon="5.45591">
        <ele>513</ele>
        <time>2022-01-17T07:05:28Z</time>
      </trkpt>
      <trkpt lat="45.45043" lon="5.45541">
        <ele>507</ele>
        <time>2022-01-17T07:06:18Z</time>
      </trkpt>
      <trkpt lat="45.45009" lon="5.4554">
        <ele>508</ele>
        <time>2022-01-17T07:07:03Z</time>
      </trkpt>
      <trkpt lat="45.44973" lon="5.456">
        <ele>515</ele>
        <time>2022-01-17T07:08:17Z</time>
      </trkpt>
      <trkpt lat="45.44907" lon="5.45616">
        <ele>516</ele>
        <time>2022-01-17T07:09:46Z</time>
      </trkpt>
      <trkpt lat="45.44863" lon="5.45505">
        <ele>513</ele>
        <time>2022-01-17T07:11:46Z</time>
      </trkpt>
      <trkpt lat="45.44728" lon="5.45399">
        <ele>509</ele>
        <time>2022-01-17T07:15:11Z</time>
      </trkpt>
      <trkpt lat="45.44559" lon="5.45227">
        <ele>506</ele>
        <time>2022-01-17T07:19:48Z</time>
      </trkpt>
      <trkpt lat="45.44451" lon="5.4518">
        <ele>503</ele>
        <time>2022-01-17T07:22:19Z</time>
      </trkpt>
      <trkpt lat="45.44366" lon="5.45066">
        <ele>495</ele>
        <time>2022-01-17T07:24:55Z</time>
      </trkpt>
      <trkpt lat="45.44362" lon="5.45115">
        <ele>495</ele>
        <time>2022-01-17T07:25:41Z</time>
      </trkpt>
      <trkpt lat="45.44338" lon="5.45176">
        <ele>494</ele>
        <time>2022-01-17T07:26:47Z</time>
      </trkpt>
      <trkpt lat="45.44289" lon="5.45167">
        <ele>493</ele>
        <time>2022-01-17T07:27:52Z</time>
      </trkpt>
      <trkpt lat="45.4422" lon="5.45227">
        <ele>501</ele>
        <time>2022-01-17T07:29:40Z</time>
      </trkpt>
      <trkpt lat="45.44165" lon="5.45302">
        <ele>507</ele>
        <time>2022-01-17T07:31:22Z</time>
      </trkpt>
      <trkpt lat="45.44091" lon="5.45342">
        <ele>508</ele>
        <time>2022-01-17T07:33:08Z</time>
      </trkpt>
      <trkpt lat="45.44088" lon="5.45363">
        <ele>511</ele>
        <time>2022-01-17T07:33:28Z</time>
      </trkpt>
      <trkpt lat="45.43979" lon="5.4539">
        <ele>519</ele>
        <time>2022-01-17T07:35:55Z</time>
      </trkpt>
      <trkpt lat="45.43932" lon="5.45418">
        <ele>525</ele>
        <time>2022-01-17T07:37:03Z</time>
      </trkpt>
      <trkpt lat="45.43921" lon="5.45438">
        <ele>531</ele>
        <time>2022-01-17T07:37:27Z</time>
      </trkpt>
      <trkpt lat="45.43868" lon="5.45477">
        <ele>544</ele>
        <time>2022-01-17T07:38:47Z</time>
      </trkpt>
      <trkpt lat="45.43812" lon="5.45537">
        <ele>567</ele>
        <time>2022-01-17T07:40:20Z</time>
      </trkpt>
      <trkpt lat="45.43742" lon="5.45581">
        <ele>581</ele>
        <time>2022-01-17T07:42:02Z</time>
      </trkpt>
      <trkpt lat="45.43673" lon="5.45604">
        <ele>584</ele>
        <time>2022-01-17T07:43:37Z</time>
      </trkpt>
      <trkpt lat="45.43579" lon="5.45657">
        <ele>589</ele>
        <time>2022-01-17T07:45:52Z</time>
      </trkpt>
      <trkpt lat="45.43491" lon="5.45736">
        <ele>594</ele>
        <time>2022-01-17T07:48:10Z</time>
      </trkpt>
      <trkpt lat="45.43434" lon="5.45759">
        <ele>590</ele>
        <time>2022-01-17T07:49:29Z</time>
      </trkpt>
      <trkpt lat="45.43293" lon="5.45988">
        <ele>586</ele>
        <time>2022-01-17T07:54:15Z</time>
      </trkpt>
      <trkpt lat="45.43263" lon="5.46089">
        <ele>589</ele>
        <time>2022-01-17T07:55:57Z</time>
      </trkpt>
      <trkpt lat="45.43175" lon="5.46173">
        <ele>586</ele>
        <time>2022-01-17T07:58:19Z</time>
      </trkpt>
      <trkpt lat="45.43116" lon="5.46353">
        <ele>580</ele>
        <time>2022-01-17T08:01:25Z</time>
      </trkpt>
      <trkpt lat="45.43102" lon="5.46473">
        <ele>580</ele>
        <time>2022-01-17T08:03:19Z</time>
      </trkpt>
      <trkpt lat="45.43119" lon="5.4655">
        <ele>582</ele>
        <time>2022-01-17T08:04:34Z</time>
      </trkpt>
      <trkpt lat="45.43208" lon="5.4673">
        <ele>586</ele>
        <time>2022-01-17T08:08:01Z</time>
      </trkpt>
      <trkpt lat="45.43242" lon="5.46827">
        <ele>585</ele>
        <time>2022-01-17T08:09:42Z</time>
      </trkpt>
      <trkpt lat="45.43276" lon="5.46953">
        <ele>587</ele>
        <time>2022-01-17T08:11:49Z</time>
      </trkpt>
      <trkpt lat="45.43299" lon="5.47158">
        <ele>583</ele>
        <time>2022-01-17T08:15:03Z</time>
      </trkpt>
      <trkpt lat="45.43354" lon="5.47219">
        <ele>586</ele>
        <time>2022-01-17T08:16:36Z</time>
      </trkpt>
      <trkpt lat="45.43397" lon="5.47323">
        <ele>582</ele>
        <time>2022-01-17T08:18:29Z</time>
      </trkpt>
      <trkpt lat="45.43468" lon="5.47396">
        <ele>588</ele>
        <time>2022-01-17T08:20:26Z</time>
      </trkpt>
      <trkpt lat="45.43516" lon="5.47482">
        <ele>584</ele>
        <time>2022-01-17T08:22:09Z</time>
      </trkpt>
      <trkpt lat="45.43739" lon="5.47583">
        <ele>593</ele>
        <time>2022-01-17T08:27:21Z</time>
      </trkpt>
      <trkpt lat="45.43782" lon="5.4761">
        <ele>597</ele>
        <time>2022-01-17T08:28:24Z</time>
      </trkpt>
      <trkpt lat="45.43947" lon="5.47667">
        <ele>607</ele>
        <time>2022-01-17T08:32:10Z</time>
      </trkpt>
      <trkpt lat="45.44043" lon="5.47742">
        <ele>617</ele>
        <time>2022-01-17T08:34:36Z</time>
      </trkpt>
      <trkpt lat="45.44124" lon="5.47756">
        <ele>625</ele>
        <time>2022-01-17T08:36:25Z</time>
      </trkpt>
      <trkpt lat="45.44142" lon="5.47805">
        <ele>623</ele>
        <time>2022-01-17T08:37:17Z</time>
      </trkpt>
      <trkpt lat="45.44174" lon="5.4784">
        <ele>623</ele>
        <time>2022-01-17T08:38:11Z</time>
      </trkpt>
      <trkpt lat="45.4423" lon="5.47839">
        <ele>631</ele>
        <time>2022-01-17T08:39:26Z</time>
      </trkpt>
      <trkpt lat="45.44265" lon="5.47895">
        <ele>627</ele>
        <time>2022-01-17T08:40:36Z</time>
      </trkpt>
      <trkpt lat="45.44356" lon="5.47965">
        <ele>620</ele>
        <time>2022-01-17T08:42:54Z</time>
      </trkpt>
      <trkpt lat="45.44439" lon="5.48132">
        <ele>608</ele>
        <time>2022-01-17T08:46:05Z</time>
      </trkpt>
      <trkpt lat="45.44504" lon="5.48158">
        <ele>608</ele>
        <time>2022-01-17T08:47:36Z</time>
      </trkpt>
      <trkpt lat="45.44551" lon="5.48151">
        <ele>612</ele>
        <time>2022-01-17T08:48:39Z</time>
      </trkpt>
      <trkpt lat="45.44582" lon="5.48168">
        <ele>611</ele>
        <time>2022-01-17T08:49:23Z</time>
      </trkpt>
      <trkpt lat="45.44608" lon="5.48198">
        <ele>614</ele>
        <time>2022-01-17T08:50:08Z</time>
      </trkpt>
      <trkpt lat="45.44686" lon="5.48197">
        <ele>627</ele>
        <time>2022-01-17T08:51:52Z</time>
      </trkpt>
      <trkpt lat="45.44746" lon="5.48165">
        <ele>635</ele>
        <time>2022-01-17T08:53:17Z</time>
      </trkpt>
      <trkpt lat="45.44809" lon="5.48227">
        <ele>646</ele>
        <time>2022-01-17T08:54:59Z</time>
      </trkpt>
      <trkpt lat="45.4488" lon="5.48248">
        <ele>655</ele>
        <time>2022-01-17T08:56:36Z</time>
      </trkpt>
      <trkpt lat="45.44941" lon="5.48277">
        <ele>667</ele>
        <time>2022-01-17T08:58:02Z</time>
      </trkpt>
      <trkpt lat="45.45038" lon="5.48275">
        <ele>676</ele>
        <time>2022-01-17T09:00:11Z</time>
      </trkpt>
      <trkpt lat="45.45095" lon="5.48235">
        <ele>681</ele>
        <time>2022-01-17T09:01:36Z</time>
      </trkpt>
      <trkpt lat="45.45321" lon="5.48265">
        <ele>701</ele>
        <time>2022-01-17T09:06:39Z</time>
      </trkpt>
      <trkpt lat="45.45365" lon="5.48242">
        <ele>701</ele>
        <time>2022-01-17T09:07:42Z</time>
      </trkpt>
      <trkpt lat="45.45435" lon="5.48138">
        <ele>706</ele>
        <time>2022-01-17T09:09:56Z</time>
      </trkpt>
      <trkpt lat="45.45521" lon="5.48028">
        <ele>710</ele>
        <time>2022-01-17T09:12:31Z</time>
      </trkpt>
      <trkpt lat="45.45572" lon="5.47998">
        <ele>709</ele>
        <time>2022-01-17T09:13:44Z</time>
      </trkpt>
      <trkpt lat="45.45677" lon="5.47959">
        <ele>713</ele>
        <time>2022-01-17T09:16:09Z</time>
      </trkpt>
      <trkpt lat="45.45824" lon="5.47946">
        <ele>724</ele>
        <time>2022-01-17T09:19:26Z</time>
      </trkpt>
      <trkpt lat="45.45868" lon="5.47908">
        <ele>718</ele>
        <time>2022-01-17T09:20:34Z</time>
      </trkpt>
      <trkpt lat="45.45939" lon="5.47937">
        <ele>712</ele>
        <time>2022-01-17T09:22:13Z</time>
      </trkpt>
      <trkpt lat="45.45737" lon="5.47655">
        <ele>705</ele>
        <time>2022-01-17T09:28:30Z</time>
      </trkpt>
      <trkpt lat="45.45618" lon="5.47637">
        <ele>711</ele>
        <time>2022-01-17T09:31:10Z</time>
      </trkpt>
      <trkpt lat="45.45559" lon="5.47482">
        <ele>699</ele>
        <time>2022-01-17T09:33:55Z</time>
      </trkpt>
      <trkpt lat="45.45531" lon="5.47424">
        <ele>696</ele>
        <time>2022-01-17T09:35:01Z</time>
      </trkpt>
      <trkpt lat="45.45486" lon="5.47378">
        <ele>698</ele>
        <time>2022-01-17T09:36:15Z</time>
      </trkpt>
      <trkpt lat="45.45433" lon="5.47341">
        <ele>700</ele>
        <time>2022-01-17T09:37:33Z</time>
      </trkpt>
      <trkpt lat="45.45421" lon="5.473">
        <ele>698</ele>
        <time>2022-01-17T09:38:15Z</time>
      </trkpt>
      <trkpt lat="45.45406" lon="5.47282">
        <ele>700</ele>
        <time>2022-01-17T09:38:41Z</time>
      </trkpt>
      <trkpt lat="45.45403" lon="5.47224">
        <ele>695</ele>
        <time>2022-01-17T09:39:36Z</time>
      </trkpt>
      <trkpt lat="45.45395" lon="5.4716">
        <ele>689</ele>
        <time>2022-01-17T09:40:36Z</time>
      </trkpt>
      <trkpt lat="45.45406" lon="5.47115">
        <ele>679</ele>
        <time>2022-01-17T09:41:21Z</time>
      </trkpt>
      <trkpt lat="45.45387" lon="5.4705">
        <ele>671</ele>
        <time>2022-01-17T09:42:27Z</time>
      </trkpt>
      <trkpt lat="45.45395" lon="5.4697">
        <ele>652</ele>
        <time>2022-01-17T09:43:43Z</time>
      </trkpt>
      <trkpt lat="45.45395" lon="5.46887">
        <ele>635</ele>
        <time>2022-01-17T09:45:00Z</time>
      </trkpt>
      <trkpt lat="45.45422" lon="5.46826">
        <ele>622</ele>
        <time>2022-01-17T09:46:08Z</time>
      </trkpt>
      <trkpt lat="45.45448" lon="5.46843">
        <ele>623</ele>
        <time>2022-01-17T09:46:46Z</time>
      </trkpt>
      <trkpt lat="45.4544" lon="5.46807">
        <ele>620</ele>
        <time>2022-01-17T09:47:21Z</time>
      </trkpt>
      <trkpt lat="45.45447" lon="5.46776">
        <ele>619</ele>
        <time>2022-01-17T09:47:52Z</time>
      </trkpt>
      <trkpt lat="45.45479" lon="5.46755">
        <ele>619</ele>
        <time>2022-01-17T09:48:39Z</time>
      </trkpt>
      <trkpt lat="45.45585" lon="5.46774">
        <ele>609</ele>
        <time>2022-01-17T09:51:01Z</time>
      </trkpt>
      <trkpt lat="45.45726" lon="5.46753">
        <ele>586</ele>
        <time>2022-01-17T09:54:11Z</time>
      </trkpt>
      <trkpt lat="45.45785" lon="5.46771">
        <ele>581</ele>
        <time>2022-01-17T09:55:31Z</time>
      </trkpt>
      <trkpt lat="45.45826" lon="5.46759">
        <ele>572</ele>
        <time>2022-01-17T09:56:27Z</time>
      </trkpt>
      <trkpt lat="45.45883" lon="5.46651">
        <ele>564</ele>
        <time>2022-01-17T09:58:33Z</time>
      </trkpt>
      <trkpt lat="45.45907" lon="5.46605">
        <ele>556</ele>
        <time>2022-01-17T09:59:27Z</time>
      </trkpt>
      <trkpt lat="45.45964" lon="5.46472">
        <ele>541</ele>
        <time>2022-01-17T10:01:53Z</time>
      </trkpt>
      <trkpt lat="45.4595" lon="5.46358">
        <ele>530</ele>
        <time>2022-01-17T10:03:41Z</time>
      </trkpt>
      <trkpt lat="45.45904" lon="5.46241">
        <ele>519</ele>
        <time>2022-01-17T10:05:47Z</time>
      </trkpt>
      <trkpt lat="45.45954" lon="5.46021">
        <ele>496</ele>
        <time>2022-01-17T10:09:23Z</time>
      </trkpt>
      <trkpt lat="45.45959" lon="5.45794">
        <ele>476</ele>
        <time>2022-01-17T10:12:56Z</time>
      </trkpt>
      <trkpt lat="45.45901" lon="5.45785">
        <ele>481</ele>
        <time>2022-01-17T10:14:14Z</time>
      </trkpt>
      <trkpt lat="45.45908" lon="5.45688">
        <ele>475</ele>
        <time>2022-01-17T10:15:45Z</time>
      </trkpt>
      <trkpt lat="45.45932" lon="5.45626">
        <ele>466</ele>
        <time>2022-01-17T10:16:51Z</time>
      </trkpt>
    </trkseg>
  </trk>
</gpx>